Time;durP1;ratioP1;P1;durP2;ratioP2;P2;SDS_P1;SDS_P2;PMS_P1;PMS_P2;Temp;Humidity;BMP_temperature;BMP_pressure;BME280_temperature;BME280_humidity;BME280_pressure;Samples;Min_cycle;Max_cycle;Signal;HPM_P1;HPM_P2
2022/01/24 00:03:08;;;;;;;4.30;2.87;;;;;;;18.74;53.51;97982.13;10457037;28;20032;-23
2022/01/24 00:08:09;;;;;;;4.43;2.85;;;;;;;18.74;53.47;97982.13;10419596;28;20040;-23
2022/01/24 00:18:14;;;;;;;3.50;2.63;;;;;;;18.76;53.34;97985.53;10454851;28;20037;-23
2022/01/24 00:28:33;;;;;;;6.65;3.08;;;;;;;18.72;53.59;97983.75;10447349;28;20083;-23
2022/01/24 00:33:34;;;;;;;3.70;2.83;;;;;;;18.73;53.42;97976.16;10455627;28;20073;-23
2022/01/24 00:38:34;;;;;;;5.17;3.07;;;;;;;18.74;53.34;97977.88;10454516;28;20032;-23
2022/01/24 00:43:54;;;;;;;4.07;2.30;;;;;;;18.71;53.69;97961.75;10421572;28;20033;-23
2022/01/24 00:49:17;;;;;;;5.60;2.55;;;;;;;18.71;53.53;97974.44;10416099;28;20342;-22
2022/01/24 00:59:34;;;;;;;5.70;2.75;;;;;;;18.71;53.46;97982.03;10454593;28;20068;-23
2022/01/24 01:05:06;;;;;;;4.30;2.50;;;;;;;18.73;53.51;97987.97;10432442;28;20110;-23
2022/01/24 01:20:53;;;;;;;4.57;2.88;;;;;;;18.70;53.50;97986.28;10426264;28;20507;-22
2022/01/24 01:25:55;;;;;;;3.03;2.42;;;;;;;18.72;53.50;97993.88;10422405;28;20039;-23
2022/01/24 01:31:00;;;;;;;8.02;2.72;;;;;;;18.70;53.61;97993.00;10453423;28;20076;-23
2022/01/24 01:57:22;;;;;;;4.72;2.13;;;;;;;18.70;53.33;97996.44;10450030;28;20124;-23
2022/01/24 02:02:23;;;;;;;4.93;2.38;;;;;;;18.71;53.24;97998.13;10368982;28;20496;-22
2022/01/24 02:07:23;;;;;;;3.13;2.05;;;;;;;18.70;53.31;97985.41;10380609;28;20086;-23
2022/01/24 02:12:27;;;;;;;4.53;2.13;;;;;;;18.70;53.36;97985.41;10450561;28;20503;-24
2022/01/24 02:17:39;;;;;;;2.72;1.80;;;;;;;18.72;53.26;97974.47;10452121;28;20040;-22
2022/01/24 02:22:50;;;;;;;5.57;2.15;;;;;;;18.70;53.13;97972.72;10449489;28;20033;-23
2022/01/24 02:28:01;;;;;;;5.00;2.53;;;;;;;18.70;53.36;97963.44;10422380;28;20041;-23
2022/01/24 02:33:02;;;;;;;3.67;1.90;;;;;;;18.71;53.36;97966.81;10408809;28;20391;-23
2022/01/24 02:38:09;;;;;;;8.63;2.15;;;;;;;18.74;53.05;97961.81;10439670;28;20120;-23
2022/01/24 02:48:30;;;;;;;2.90;2.35;;;;;;;18.71;53.22;97962.63;10419329;28;20081;-24
2022/01/24 02:53:32;;;;;;;5.18;2.10;;;;;;;18.72;53.28;97958.38;10448624;28;20036;-24
2022/01/24 02:58:33;;;;;;;4.55;2.17;;;;;;;18.69;53.22;97963.41;10416090;28;20033;-24
2022/01/24 03:03:36;;;;;;;5.07;2.08;;;;;;;18.70;53.29;97965.97;10408698;28;20022;-23
2022/01/24 03:08:39;;;;;;;3.55;2.50;;;;;;;18.68;53.24;97966.78;10408647;28;20029;-23
2022/01/24 03:13:39;;;;;;;5.28;2.42;;;;;;;18.69;53.08;97968.47;10441730;28;20495;-23
2022/01/24 03:18:40;;;;;;;4.97;2.23;;;;;;;18.71;53.16;97966.81;10455148;28;20041;-22
2022/01/24 03:23:41;;;;;;;5.32;1.80;;;;;;;18.69;52.94;97974.41;10457612;28;20094;-23
2022/01/24 03:28:41;;;;;;;4.10;2.17;;;;;;;18.71;52.93;97974.44;10456668;28;20407;-25
2022/01/24 03:33:41;;;;;;;3.77;2.37;;;;;;;18.73;53.15;97967.69;10458048;28;20036;-24
2022/01/24 03:38:42;;;;;;;5.53;2.13;;;;;;;18.65;53.22;97959.06;10456267;28;20120;-23
2022/01/24 03:43:42;;;;;;;3.28;2.20;;;;;;;18.72;53.05;97960.91;10456038;28;20319;-24
2022/01/24 03:48:48;;;;;;;4.40;2.20;;;;;;;18.71;53.05;97961.75;10429901;28;20047;-23
2022/01/24 03:53:49;;;;;;;6.53;2.13;;;;;;;18.70;53.15;97962.56;10456922;28;20041;-22
2022/01/24 03:58:49;;;;;;;4.38;2.10;;;;;;;18.70;53.22;97965.97;10455563;28;20036;-22
2022/01/24 04:03:50;;;;;;;3.77;1.80;;;;;;;18.68;53.34;97961.69;10448317;28;20040;-23
2022/01/24 04:08:50;;;;;;;3.20;2.67;;;;;;;18.70;53.34;97962.56;10415356;28;20041;-24
2022/01/24 04:13:58;;;;;;;3.20;1.92;;;;;;;18.68;53.41;97967.59;10449720;28;20041;-23
2022/01/24 04:19:16;;;;;;;2.90;2.05;;;;;;;18.71;52.97;97960.06;10442862;28;20045;-23
2022/01/24 04:24:21;;;;;;;4.97;2.25;;;;;;;18.69;53.31;97963.41;10414653;28;20037;-24
2022/01/24 04:29:21;;;;;;;4.72;1.67;;;;;;;18.71;53.16;97964.28;10452457;28;20051;-23
2022/01/24 04:34:22;;;;;;;2.43;1.97;;;;;;;18.61;53.20;97952.25;10441817;28;20042;-24
2022/01/24 04:39:23;;;;;;;3.58;1.73;;;;;;;18.68;53.19;97961.69;10422772;28;20041;-23
2022/01/24 04:45:23;;;;;;;2.67;1.95;;;;;;;18.65;53.10;97948.94;10451582;28;20160;-23
2022/01/24 04:55:04;;;;;;;2.63;1.88;;;;;;;18.74;53.11;97959.28;10405620;28;20575;-22
2022/01/24 05:00:08;;;;;;;2.47;1.85;;;;;;;18.72;53.11;97953.28;10406995;28;20488;-25
2022/01/24 05:05:13;;;;;;;3.45;1.98;;;;;;;18.71;53.02;97957.53;10426288;28;20063;-22
2022/01/24 05:25:57;;;;;;;2.55;1.92;;;;;;;18.72;52.51;97933.00;10411702;28;20045;-22
2022/01/24 05:30:58;;;;;;;3.20;1.67;;;;;;;18.82;52.37;97929.84;10404985;28;20518;-23
2022/01/24 05:35:59;;;;;;;4.68;1.75;;;;;;;18.82;52.06;97932.38;10405599;28;20108;-23
2022/01/24 05:41:00;;;;;;;3.38;1.40;;;;;;;18.77;51.95;97921.28;10404933;28;20044;-23
2022/01/24 05:46:00;;;;;;;1.60;1.50;;;;;;;18.79;51.97;97929.75;10404982;28;20486;-22
2022/01/24 05:51:01;;;;;;;2.20;1.50;;;;;;;18.76;51.94;97930.53;10406991;28;20522;-24
2022/01/24 05:56:01;;;;;;;2.88;1.60;;;;;;;18.72;52.15;97930.47;10404229;28;20573;-23
2022/01/24 06:01:02;;;;;;;3.75;1.88;;;;;;;18.72;51.82;97935.53;10403416;28;20567;-23
2022/01/24 06:06:02;;;;;;;2.70;1.50;;;;;;;18.73;51.75;97935.59;10404339;28;20025;-22
2022/01/24 06:11:03;;;;;;;2.28;1.50;;;;;;;18.70;51.91;97934.66;10413874;28;20411;-24
2022/01/24 06:16:05;;;;;;;4.27;1.80;;;;;;;18.72;52.04;97933.88;10448502;28;20612;-23
2022/01/24 06:21:05;;;;;;;2.72;2.30;;;;;;;18.72;51.60;97930.47;10422690;28;20391;-22
2022/01/24 06:26:05;;;;;;;3.33;1.43;;;;;;;18.72;52.34;97933.00;10409252;28;20051;-23
2022/01/24 06:31:06;;;;;;;2.73;1.47;;;;;;;18.68;52.84;97934.63;10409996;28;20041;-24
2022/01/24 06:36:06;;;;;;;6.32;1.77;;;;;;;18.70;53.56;97933.00;10411555;28;20033;-24
2022/01/24 06:41:07;;;;;;;3.97;2.20;;;;;;;18.44;47.92;97929.13;10418745;28;20033;-23
2022/01/24 06:46:07;;;;;;;5.88;2.17;;;;;;;18.69;51.71;97927.88;10407690;28;20030;-22
2022/01/24 06:51:10;;;;;;;4.43;2.03;;;;;;;18.71;49.64;97938.91;10429864;28;20036;-22
2022/01/24 06:56:10;;;;;;;5.72;1.70;;;;;;;18.78;52.36;97949.22;10415726;28;20464;-23
2022/01/24 07:01:11;;;;;;;6.32;2.00;;;;;;;18.77;52.96;97949.19;10408297;28;20049;-23
2022/01/24 07:06:11;;;;;;;9.52;2.22;;;;;;;18.77;52.68;97951.72;10440388;28;20029;-23
2022/01/24 07:11:12;;;;;;;4.20;1.75;;;;;;;18.74;52.51;97959.28;10435034;28;20032;-23
2022/01/24 07:16:13;;;;;;;6.53;1.77;;;;;;;18.74;52.01;97952.50;10408399;28;20038;-23
2022/01/24 07:21:13;;;;;;;11.88;3.20;;;;;;;18.68;48.24;97961.69;10438598;28;20029;-24
2022/01/24 07:26:13;;;;;;;6.53;2.23;;;;;;;18.73;52.31;97971.09;10447173;28;20032;-24
2022/01/24 07:31:14;;;;;;;17.20;3.03;;;;;;;18.77;52.35;97977.09;10450070;28;20041;-23
2022/01/24 07:36:14;;;;;;;12.05;3.50;;;;;;;17.86;41.81;97978.53;10414988;28;20042;-21
2022/01/24 07:41:20;;;;;;;4.80;2.43;;;;;;;18.11;46.57;97970.63;10429615;28;20094;-23
2022/01/24 07:46:21;;;;;;;7.45;2.13;;;;;;;18.46;49.68;97965.50;10436360;28;20022;-23
2022/01/24 07:51:21;;;;;;;4.30;1.90;;;;;;;18.59;50.01;97972.50;10437855;28;20112;-24
2022/01/24 07:56:21;;;;;;;3.53;1.50;;;;;;;18.64;50.55;97973.47;10447235;28;20082;-23
2022/01/24 08:01:22;;;;;;;4.53;1.57;;;;;;;18.61;51.11;97970.00;10450531;28;20037;-23
2022/01/24 08:06:22;;;;;;;2.90;1.60;;;;;;;18.61;50.99;97975.09;10419525;28;20030;-22
2022/01/24 08:11:23;;;;;;;7.18;1.83;;;;;;;18.64;51.21;97980.22;10415967;28;20283;-23
2022/01/24 08:16:24;;;;;;;2.53;1.55;;;;;;;18.62;51.29;97986.94;10418432;28;20040;-23
2022/01/24 08:21:24;;;;;;;2.50;1.70;;;;;;;18.61;51.50;97983.56;10431080;28;20062;-23
2022/01/24 08:26:25;;;;;;;6.23;1.40;;;;;;;18.64;51.40;97987.81;10424366;28;20026;-24
2022/01/24 08:31:25;;;;;;;3.90;1.57;;;;;;;18.65;51.71;97982.78;10403138;28;20045;-23
2022/01/24 08:36:26;;;;;;;2.23;1.40;;;;;;;18.70;51.65;97980.34;10434438;28;20319;-23
2022/01/24 08:41:39;;;;;;;2.70;1.70;;;;;;;18.67;51.53;97986.19;10438851;28;20044;-24
2022/01/24 08:46:39;;;;;;;5.22;1.42;;;;;;;18.70;51.50;97985.41;10438950;28;20272;-23
2022/01/24 08:51:40;;;;;;;1.57;1.20;;;;;;;18.71;51.18;97987.09;10430459;28;20134;-22
2022/01/24 08:56:41;;;;;;;10.98;2.00;;;;;;;18.68;50.52;97987.06;10436186;28;20033;-24
2022/01/24 09:01:41;;;;;;;6.43;2.67;;;;;;;18.63;47.40;97988.66;10412233;28;20041;-23
2022/01/24 09:06:41;;;;;;;10.73;3.03;;;;;;;18.60;48.09;98004.66;10435941;28;20043;-24
2022/01/24 09:11:42;;;;;;;12.00;4.88;;;;;;;17.65;41.58;98006.75;10452252;28;20056;-24
2022/01/24 09:16:43;;;;;;;7.07;2.70;;;;;;;18.34;49.18;98000.75;10451253;28;20040;-24
2022/01/24 09:21:43;;;;;;;6.67;2.90;;;;;;;18.50;49.79;98007.84;10422769;28;20033;-24
2022/01/24 09:26:43;;;;;;;8.70;2.23;;;;;;;18.54;50.47;98006.22;10428733;28;20112;-22
2022/01/24 09:31:44;;;;;;;5.57;2.10;;;;;;;18.61;50.49;98013.13;10453391;28;20289;-23
2022/01/24 09:36:44;;;;;;;4.90;2.30;;;;;;;18.63;50.67;98019.94;10413231;28;20358;-23
2022/01/24 09:41:45;;;;;;;3.90;1.77;;;;;;;18.62;50.92;98007.22;10438578;28;20495;-22
2022/01/24 09:46:46;;;;;;;6.55;2.35;;;;;;;18.60;51.04;98017.34;10435838;28;20403;-23
2022/01/24 09:51:49;;;;;;;4.57;1.77;;;;;;;18.58;51.25;98002.94;10442654;28;20083;-23
2022/01/24 09:56:49;;;;;;;7.22;2.70;;;;;;;18.18;48.75;98008.81;10437568;28;20039;-23
2022/01/24 10:01:49;;;;;;;3.55;1.98;;;;;;;18.52;50.96;98018.88;10410868;28;20029;-24
2022/01/24 10:07:15;;;;;;;4.30;1.70;;;;;;;18.58;50.21;98023.22;10410043;28;20024;-23
2022/01/24 10:17:30;;;;;;;13.07;2.63;;;;;;;18.74;50.94;98013.41;10404118;28;20072;-23
2022/01/24 10:22:30;;;;;;;7.65;2.33;;;;;;;18.67;51.25;98011.56;10394239;28;20053;-26
2022/01/24 10:27:30;;;;;;;10.30;2.47;;;;;;;18.66;51.30;98009.03;10390675;28;20032;-23
2022/01/24 10:32:35;;;;;;;3.07;2.10;;;;;;;18.66;51.31;98014.09;10386224;28;20033;-23
2022/01/24 10:37:36;;;;;;;5.15;1.80;;;;;;;18.68;51.34;98010.72;10428626;28;20061;-24
2022/01/24 10:42:52;;;;;;;4.00;3.33;;;;;;;18.71;51.30;98017.56;10413723;28;20064;-23
2022/01/24 10:47:55;;;;;;;5.45;1.77;;;;;;;18.76;51.39;98019.34;10407855;28;20276;-23
2022/01/24 10:52:57;;;;;;;4.57;2.70;;;;;;;18.76;51.33;98008.38;10408567;28;20051;-21
2022/01/24 10:58:07;;;;;;;3.22;2.38;;;;;;;18.70;51.42;97987.94;10409051;28;20067;-21
2022/01/24 11:03:15;;;;;;;6.13;1.73;;;;;;;18.73;51.48;97990.53;10411983;28;20029;-21
2022/01/24 11:08:17;;;;;;;5.53;2.20;;;;;;;18.75;51.58;97999.03;10449258;28;20110;-21
2022/01/24 11:13:20;;;;;;;3.38;1.90;;;;;;;18.73;51.53;97986.31;10417211;28;20039;-21
2022/01/24 11:18:22;;;;;;;5.70;3.20;;;;;;;18.78;51.10;97974.59;10408417;28;20500;-21
2022/01/24 11:23:22;;;;;;;4.35;2.38;;;;;;;18.82;51.53;97980.56;10408191;28;20594;-21
2022/01/24 11:28:23;;;;;;;6.68;4.75;;;;;;;18.61;45.68;97967.47;10438263;28;20116;-24
2022/01/24 11:33:33;;;;;;;7.57;4.63;;;;;;;18.68;51.49;97966.78;10447802;28;20040;-23
2022/01/24 11:38:37;;;;;;;11.07;5.35;;;;;;;18.68;51.36;97959.16;10454352;28;20041;-24
2022/01/24 11:43:41;;;;;;;5.78;4.07;;;;;;;18.74;51.44;97965.19;10455582;28;20044;-24
2022/01/24 11:48:42;;;;;;;8.15;4.75;;;;;;;18.69;51.58;97954.13;10423929;28;20126;-19
2022/01/24 11:53:45;;;;;;;10.03;4.33;;;;;;;18.79;51.23;97957.66;10416366;28;20034;-24
2022/01/24 11:58:46;;;;;;;8.38;3.75;;;;;;;18.73;51.56;97955.88;10449200;28;20832;-24
2022/01/24 12:03:52;;;;;;;6.95;4.15;;;;;;;18.76;51.39;97955.91;10442931;28;20069;-25
2022/01/24 12:09:05;;;;;;;7.50;4.18;;;;;;;18.75;50.94;97953.38;10417617;28;20419;-24
2022/01/24 12:14:13;;;;;;;8.40;4.95;;;;;;;18.73;49.58;97960.06;10449935;28;20406;-23
2022/01/24 12:19:14;;;;;;;8.13;5.18;;;;;;;18.79;50.30;97950.06;10456076;28;20075;-24
2022/01/24 12:24:14;;;;;;;8.93;4.53;;;;;;;18.77;50.64;97944.09;10414286;28;20080;-23
2022/01/24 12:29:19;;;;;;;7.33;3.87;;;;;;;18.83;50.90;97942.53;10415139;28;20029;-23
2022/01/24 12:34:42;;;;;;;12.43;4.38;;;;;;;18.85;51.39;97940.03;10414311;28;20323;-25
2022/01/24 12:39:49;;;;;;;7.50;3.28;;;;;;;18.84;51.65;97938.31;10395638;28;20040;-21
2022/01/24 12:49:54;;;;;;;6.53;3.88;;;;;;;18.75;52.25;97933.09;10413558;28;20400;-22
2022/01/24 12:54:59;;;;;;;8.52;3.38;;;;;;;18.85;52.20;97927.34;10415691;28;20041;-21
2022/01/24 13:00:08;;;;;;;6.47;3.40;;;;;;;18.87;51.86;97923.13;10454594;28;20044;-22
2022/01/24 13:05:12;;;;;;;8.63;4.00;;;;;;;18.80;52.95;97917.09;10453173;28;20067;-22
2022/01/24 13:10:16;;;;;;;6.00;3.03;;;;;;;18.79;52.91;97914.53;10448104;28;20079;-21
2022/01/24 13:15:27;;;;;;;7.18;3.65;;;;;;;18.79;52.87;97912.00;10406194;28;20033;-22
2022/01/24 13:25:44;;;;;;;;;;;;;;;18.78;53.35;97915.38;10421992;28;20031;-22
2022/01/24 13:30:52;;;;;;;6.97;3.67;;;;;;;18.80;53.42;97911.16;10412399;28;20375;-22
2022/01/24 13:35:54;;;;;;;6.20;3.28;;;;;;;18.84;53.17;97908.72;10412051;28;20037;-22
2022/01/24 13:40:59;;;;;;;6.40;3.30;;;;;;;18.87;52.63;97897.75;10422756;28;20033;-21
2022/01/24 13:46:02;;;;;;;14.85;4.95;;;;;;;18.92;53.51;97898.69;10411798;28;20017;-21
2022/01/24 13:51:02;;;;;;;24.55;7.55;;;;;;;18.78;48.73;97892.53;10428819;28;20067;-21
2022/01/24 13:56:26;;;;;;;11.63;4.53;;;;;;;18.80;53.90;97896.81;10438565;28;20037;-21
2022/01/24 14:01:27;;;;;;;9.57;4.05;;;;;;;18.82;53.81;97901.91;10410827;28;20177;-21
2022/01/24 14:06:32;;;;;;;6.63;3.30;;;;;;;18.80;53.64;97908.63;10411183;28;20174;-21
2022/01/24 14:11:43;;;;;;;7.35;3.60;;;;;;;18.81;53.78;97907.78;10410594;28;20076;-21
2022/01/24 14:22:12;;;;;;;6.55;3.50;;;;;;;18.86;53.68;97921.44;10443822;28;20091;-22
2022/01/24 14:27:14;;;;;;;6.05;3.30;;;;;;;18.85;53.73;97909.56;10449316;28;20108;-21
2022/01/24 14:32:15;;;;;;;6.00;3.70;;;;;;;18.88;53.53;97915.56;10450941;28;20047;-21
2022/01/24 14:37:15;;;;;;;6.28;3.65;;;;;;;18.85;53.58;97915.50;10411205;28;20033;-21
2022/01/24 14:42:31;;;;;;;4.37;2.90;;;;;;;18.83;53.67;97921.38;10441322;28;20110;-22
2022/01/24 14:47:34;;;;;;;3.80;2.63;;;;;;;18.76;53.62;97909.41;10429664;28;20022;-21
2022/01/24 14:52:35;;;;;;;5.15;3.20;;;;;;;18.83;53.41;97921.38;10450805;28;20118;-21
2022/01/24 14:57:36;;;;;;;4.47;3.10;;;;;;;18.74;53.65;97913.63;10424475;28;20552;-21
2022/01/24 15:02:36;;;;;;;6.97;3.37;;;;;;;18.85;53.71;97932.41;10410997;28;20025;-22
2022/01/24 15:07:37;;;;;;;5.00;3.30;;;;;;;18.84;53.84;97928.16;10450222;28;20025;-21
2022/01/24 15:12:44;;;;;;;5.50;2.80;;;;;;;18.88;53.83;97930.78;10445800;28;20052;-24
2022/01/24 15:23:58;;;;;;;;;;;;;;;18.89;53.69;97936.69;10448783;28;20653;-22
2022/01/24 15:28:27;;;;;;;6.47;2.85;;;;;;;18.83;54.11;97947.59;10417179;28;20095;-21
2022/01/24 15:33:27;;;;;;;4.55;3.20;;;;;;;18.80;54.03;97947.56;10408333;28;20468;-21
2022/01/24 15:38:28;;;;;;;4.70;2.65;;;;;;;18.80;54.09;97944.16;10440628;28;20399;-22
2022/01/24 15:43:52;;;;;;;4.28;2.45;;;;;;;18.80;53.77;97952.63;10416586;28;20046;-21
2022/01/24 15:48:48;;;;;;;4.18;2.70;;;;;;;18.80;53.98;97957.72;10407653;28;20034;-22
2022/01/24 15:53:50;;;;;;;2.78;2.35;;;;;;;18.81;53.93;97956.00;10443113;28;20391;-22
2022/01/24 15:58:51;;;;;;;4.47;2.65;;;;;;;18.81;53.68;97963.63;10412460;28;20268;-22
2022/01/24 16:03:51;;;;;;;3.83;2.63;;;;;;;18.82;53.59;97975.50;10415255;28;20521;-22
2022/01/24 16:08:52;;;;;;;3.37;2.33;;;;;;;18.84;53.52;97959.44;10453392;28;20283;-22
2022/01/24 16:13:53;;;;;;;3.97;2.60;;;;;;;18.79;53.29;97955.13;10416001;28;20500;-22
2022/01/24 16:18:53;;;;;;;3.40;2.73;;;;;;;18.85;53.42;97975.53;10410969;28;20037;-21
2022/01/24 16:29:15;;;;;;;6.35;4.22;;;;;;;18.70;52.72;97975.25;10429433;28;20583;-23
2022/01/24 16:34:17;;;;;;;7.67;3.60;;;;;;;18.76;52.75;97983.81;10379065;28;20041;-22
2022/01/24 16:39:20;;;;;;;5.38;3.20;;;;;;;18.79;52.54;97988.13;10394306;28;20294;-22
2022/01/24 16:44:54;;;;;;;3.60;2.85;;;;;;;18.81;52.81;97989.84;10383135;28;20396;-22
2022/01/24 16:49:49;;;;;;;3.47;2.60;;;;;;;18.88;52.63;97996.75;10379929;28;20040;-21
2022/01/24 16:54:50;;;;;;;6.57;3.37;;;;;;;18.86;53.09;97988.28;10375148;28;20049;-22
2022/01/24 16:59:50;;;;;;;3.80;2.80;;;;;;;18.89;52.44;97979.84;10417498;28;20033;-23
2022/01/24 17:04:55;;;;;;;3.58;2.85;;;;;;;18.88;52.60;97980.66;10417653;28;20029;-23
2022/01/24 17:09:55;;;;;;;5.20;3.17;;;;;;;18.89;52.75;97992.53;10419329;28;20502;-22
2022/01/24 17:15:03;;;;;;;5.07;2.50;;;;;;;18.91;52.46;97995.97;10429206;28;20044;-24
2022/01/24 17:20:04;;;;;;;5.75;3.03;;;;;;;18.92;52.14;97998.50;10416616;28;20041;-22
2022/01/24 17:25:04;;;;;;;4.80;2.85;;;;;;;18.92;52.80;97997.69;10446726;28;20037;-23
2022/01/24 17:30:05;;;;;;;5.53;2.85;;;;;;;18.89;52.79;97993.41;10457798;28;20116;-22
2022/01/24 17:35:06;;;;;;;6.00;2.67;;;;;;;18.91;52.54;97996.81;10444008;28;20136;-23
2022/01/24 17:40:11;;;;;;;4.35;2.42;;;;;;;18.91;52.65;97990.91;10428845;28;20052;-22
2022/01/24 17:45:13;;;;;;;5.40;2.63;;;;;;;18.85;52.84;98000.91;10449355;28;20441;-22
2022/01/24 17:50:15;;;;;;;6.95;2.70;;;;;;;18.85;52.49;97995.84;10408446;28;20399;-22
2022/01/24 17:55:17;;;;;;;4.97;2.85;;;;;;;18.87;52.55;98001.81;10384526;28;20406;-24
2022/01/24 18:00:18;;;;;;;5.43;2.05;;;;;;;18.86;52.55;98006.03;10377861;28;20038;-22
2022/01/24 18:05:19;;;;;;;4.03;2.50;;;;;;;18.89;52.30;98008.63;10383470;28;20121;-22
2022/01/24 18:10:22;;;;;;;7.25;3.78;;;;;;;18.87;51.90;98010.28;10411788;28;20144;-22
2022/01/24 18:15:25;;;;;;;5.43;3.75;;;;;;;18.91;51.52;98006.13;10411298;28;20040;-23
2022/01/24 18:20:25;;;;;;;7.00;3.92;;;;;;;18.94;51.64;98012.13;10411297;28;20061;-22
2022/01/24 18:25:27;;;;;;;6.97;3.60;;;;;;;18.80;51.68;97992.34;10416743;28;20049;-23
2022/01/24 18:30:28;;;;;;;8.77;4.15;;;;;;;18.96;51.85;98015.53;10451759;28;20032;-23
2022/01/24 18:35:29;;;;;;;14.23;5.13;;;;;;;18.91;52.27;98017.13;10427582;28;20480;-24
2022/01/24 18:40:29;;;;;;;7.32;3.90;;;;;;;18.87;52.39;98010.28;10426216;28;20032;-23
2022/01/24 18:45:29;;;;;;;8.18;4.00;;;;;;;18.90;52.08;98012.00;10443636;28;20029;-23
2022/01/24 18:50:30;;;;;;;6.83;3.80;;;;;;;18.81;52.47;98006.75;10417481;28;20039;-22
2022/01/24 18:55:31;;;;;;;6.68;3.65;;;;;;;18.82;52.43;98009.31;10417029;28;20095;-23
2022/01/24 19:00:32;;;;;;;6.32;3.97;;;;;;;18.83;52.40;98007.66;10396555;28;20476;-22
2022/01/24 19:05:33;;;;;;;10.13;4.43;;;;;;;18.85;52.02;98006.00;10389990;28;20069;-23
2022/01/24 19:10:34;;;;;;;8.85;4.82;;;;;;;18.85;52.21;97999.22;10413117;28;20036;-22
2022/01/24 19:15:35;;;;;;;11.88;5.60;;;;;;;18.82;52.47;97996.63;10408617;28;20029;-23
2022/01/24 19:26:02;;;;;;;9.30;6.07;;;;;;;18.85;52.21;97995.84;10397891;28;20445;-22
2022/01/24 19:31:05;;;;;;;9.82;6.80;;;;;;;18.82;52.16;97991.56;10395044;28;20029;-22
2022/01/24 19:36:06;;;;;;;9.75;5.78;;;;;;;18.91;52.23;98006.13;10384477;28;20300;-23
2022/01/24 19:41:06;;;;;;;10.43;6.60;;;;;;;18.90;51.84;98009.47;10391095;28;20157;-23
2022/01/24 19:46:07;;;;;;;9.52;5.45;;;;;;;18.98;52.22;98010.47;10402999;28;20033;-23
2022/01/24 19:51:09;;;;;;;15.32;6.43;;;;;;;18.98;53.37;98018.94;10397549;28;20059;-23
2022/01/24 19:56:36;;;;;;;15.05;7.22;;;;;;;18.99;53.18;98017.28;10413329;28;20047;-23
2022/01/24 20:01:37;;;;;;;10.98;5.65;;;;;;;18.99;53.07;98009.66;10389277;28;20088;-22
2022/01/24 20:06:38;;;;;;;11.50;6.53;;;;;;;19.01;53.12;98015.63;10418619;28;20092;-23
2022/01/24 20:11:38;;;;;;;11.80;6.80;;;;;;;18.97;53.00;98014.69;10418341;28;20515;-23
2022/01/24 20:16:39;;;;;;;9.50;6.18;;;;;;;18.95;53.17;98003.66;10411502;28;20037;-24
2022/01/24 20:21:39;;;;;;;10.30;6.03;;;;;;;18.99;52.72;98007.97;10419326;28;20530;-22
2022/01/24 20:26:40;;;;;;;9.70;5.90;;;;;;;18.98;52.59;98013.88;10376030;28;20030;-23
2022/01/24 20:31:40;;;;;;;12.30;6.60;;;;;;;18.99;52.48;98007.13;10384032;28;20049;-22
2022/01/24 20:36:41;;;;;;;12.00;5.77;;;;;;;19.01;52.42;98013.06;10373014;28;20381;-22
2022/01/24 20:41:42;;;;;;;10.45;6.13;;;;;;;18.99;52.54;98014.75;10373791;28;20496;-22
2022/01/24 20:46:42;;;;;;;10.95;5.90;;;;;;;18.95;53.11;98016.34;10373028;28;20121;-23
2022/01/24 20:51:45;;;;;;;10.60;6.07;;;;;;;18.91;52.99;98021.34;10412852;28;20087;-23
2022/01/24 20:56:45;;;;;;;13.27;5.47;;;;;;;18.90;52.82;98015.41;10435977;28;20091;-23
2022/01/24 21:01:46;;;;;;;10.95;6.25;;;;;;;18.93;52.75;98019.69;10413737;28;20041;-22
2022/01/24 21:06:46;;;;;;;10.93;4.97;;;;;;;18.93;52.63;98019.69;10435799;28;20158;-23
2022/01/24 21:11:55;;;;;;;9.87;5.40;;;;;;;18.87;52.75;98019.56;10435156;28;20037;-23
2022/01/24 21:16:56;;;;;;;8.60;5.15;;;;;;;18.93;52.57;98015.44;10412781;28;20460;-22
2022/01/24 21:21:56;;;;;;;10.27;5.15;;;;;;;18.90;52.92;98009.47;10445605;28;20041;-22
2022/01/24 21:26:56;;;;;;;17.00;5.83;;;;;;;18.91;52.85;98011.19;10406077;28;20040;-22
2022/01/24 21:31:57;;;;;;;12.23;4.95;;;;;;;18.90;52.92;98019.59;10439825;28;20037;-23
2022/01/24 21:36:57;;;;;;;8.60;4.70;;;;;;;18.86;52.47;98017.84;10443038;28;20037;-23
2022/01/24 21:41:57;;;;;;;6.60;4.20;;;;;;;18.88;52.90;98022.13;10451904;28;20067;-23
2022/01/24 21:46:58;;;;;;;10.10;4.77;;;;;;;18.88;53.07;98012.00;10452969;28;20040;-23
2022/01/24 21:51:58;;;;;;;9.23;5.10;;;;;;;18.87;52.93;98019.56;10451487;28;20298;-22
2022/01/24 21:56:59;;;;;;;7.90;5.00;;;;;;;18.88;53.14;98016.19;10450935;28;20037;-23
2022/01/24 22:01:59;;;;;;;17.20;5.70;;;;;;;18.88;53.11;98016.19;10452774;28;20123;-21
2022/01/24 22:07:04;;;;;;;9.33;4.80;;;;;;;18.89;52.98;98018.78;10431214;28;20044;-23
2022/01/24 22:12:05;;;;;;;6.80;4.57;;;;;;;18.86;53.01;98012.78;10430757;28;20037;-22
2022/01/24 22:17:05;;;;;;;10.02;4.60;;;;;;;18.85;52.99;98018.69;10451748;28;20056;-22
2022/01/24 22:23:28;;;;;;;8.80;4.37;;;;;;;18.83;53.15;98012.72;10417123;28;20029;-22
2022/01/24 22:27:26;;;;;;;7.03;4.50;;;;;;;18.81;53.19;98014.38;10432474;28;20295;-22
2022/01/24 22:32:27;;;;;;;5.88;4.10;;;;;;;18.83;53.06;98022.88;10432949;28;20261;-22
2022/01/24 22:37:27;;;;;;;7.50;4.83;;;;;;;18.83;52.88;98016.09;10409981;28;20041;-22
2022/01/24 22:42:28;;;;;;;8.40;5.47;;;;;;;18.81;53.00;98016.91;10443097;28;20523;-22
2022/01/24 22:47:28;;;;;;;9.70;4.17;;;;;;;18.82;52.93;98016.94;10449996;28;20410;-24
2022/01/24 22:52:28;;;;;;;7.07;3.77;;;;;;;18.86;52.61;98018.72;10449402;28;20087;-24
2022/01/24 22:57:29;;;;;;;6.60;4.10;;;;;;;18.84;52.66;98009.38;10425511;28;20124;-23
2022/01/24 23:02:29;;;;;;;9.50;3.97;;;;;;;18.85;52.79;98018.69;10408993;28;20523;-23
2022/01/24 23:07:30;;;;;;;6.50;3.67;;;;;;;18.84;52.71;98015.28;10408407;28;20083;-23
2022/01/24 23:12:32;;;;;;;6.73;4.37;;;;;;;18.76;53.00;98004.13;10408460;28;20056;-23
2022/01/24 23:17:45;;;;;;;6.25;3.88;;;;;;;18.85;52.78;98016.16;10409027;28;20037;-22
2022/01/24 23:22:53;;;;;;;7.85;3.97;;;;;;;18.80;52.69;98007.59;10408654;28;20281;-23
2022/01/24 23:28:04;;;;;;;7.47;4.30;;;;;;;18.83;52.91;98013.56;10433829;28;20454;-23
2022/01/24 23:33:10;;;;;;;6.13;3.60;;;;;;;18.80;52.93;98008.44;10428832;28;20046;-24
2022/01/24 23:43:30;;;;;;;7.30;3.67;;;;;;;18.86;52.74;98008.56;10439256;28;20095;-24
2022/01/24 23:48:30;;;;;;;6.70;3.33;;;;;;;18.82;52.72;98001.72;10457668;28;20458;-22
2022/01/24 23:53:31;;;;;;;6.00;3.30;;;;;;;18.86;52.61;98007.72;10455835;28;20032;-25
